sensor_id;sensor_type;location;lat;lon;timestamp;pressure;altitude;pressure_sealevel;temperature;humidity
49341;BME280;35209;51.050;13.678;2023-08-06T00:01:57;152742.03;;;16.12;100.00
49341;BME280;35209;51.050;13.678;2023-08-06T00:06:59;152740.75;;;16.12;100.00
49341;BME280;35209;51.050;13.678;2023-08-06T00:12:00;152734.25;;;16.09;100.00
49341;BME280;35209;51.050;13.678;2023-08-06T00:17:02;152727.75;;;16.07;100.00
49341;BME280;35209;51.050;13.678;2023-08-06T00:22:04;152734.25;;;16.09;100.00
49341;BME280;35209;51.050;13.678;2023-08-06T00:27:06;152721.28;;;16.04;100.00
49341;BME280;35209;51.050;13.678;2023-08-06T00:32:08;152709.63;;;16.00;100.00
49341;BME280;35209;51.050;13.678;2023-08-06T00:37:10;152710.91;;;16.00;100.00
49341;BME280;35209;51.050;13.678;2023-08-06T00:42:13;152720.00;;;16.04;100.00
49341;BME280;35209;51.050;13.678;2023-08-06T00:47:15;152723.88;;;16.05;100.00
49341;BME280;35209;51.050;13.678;2023-08-06T00:52:19;152755.00;;;16.18;100.00
49341;BME280;35209;51.050;13.678;2023-08-06T00:57:23;152761.44;;;16.20;100.00
49341;BME280;35209;51.050;13.678;2023-08-06T01:02:26;152696.66;;;15.95;100.00
49341;BME280;35209;51.050;13.678;2023-08-06T01:13:02;152699.25;;;15.96;100.00
49341;BME280;35209;51.050;13.678;2023-08-06T01:18:07;152677.22;;;15.87;100.00
49341;BME280;35209;51.050;13.678;2023-08-06T01:23:09;152673.34;;;15.85;100.00
49341;BME280;35209;51.050;13.678;2023-08-06T01:28:18;152670.72;;;15.84;100.00
49341;BME280;35209;51.050;13.678;2023-08-06T01:33:24;152691.47;;;15.93;100.00
49341;BME280;35209;51.050;13.678;2023-08-06T01:38:29;152672.06;;;15.85;100.00
49341;BME280;35209;51.050;13.678;2023-08-06T01:43:31;152679.78;;;15.88;100.00
49341;BME280;35209;51.050;13.678;2023-08-06T01:48:33;152669.41;;;15.84;100.00
49341;BME280;35209;51.050;13.678;2023-08-06T01:53:35;152651.31;;;15.77;100.00
49341;BME280;35209;51.050;13.678;2023-08-06T01:58:37;152653.88;;;15.78;100.00
49341;BME280;35209;51.050;13.678;2023-08-06T02:03:38;152653.88;;;15.78;100.00
49341;BME280;35209;51.050;13.678;2023-08-06T02:08:40;152647.38;;;15.75;100.00
49341;BME280;35209;51.050;13.678;2023-08-06T02:13:42;152648.69;;;15.76;100.00
49341;BME280;35209;51.050;13.678;2023-08-06T02:18:44;152634.44;;;15.70;100.00
49341;BME280;35209;51.050;13.678;2023-08-06T02:23:45;152607.19;;;15.59;100.00
49341;BME280;35209;51.050;13.678;2023-08-06T02:28:47;152616.28;;;15.63;100.00
49341;BME280;35209;51.050;13.678;2023-08-06T02:33:49;152604.59;;;15.58;100.00
49341;BME280;35209;51.050;13.678;2023-08-06T02:38:51;152607.19;;;15.59;100.00
49341;BME280;35209;51.050;13.678;2023-08-06T02:43:53;152613.63;;;15.62;100.00
49341;BME280;35209;51.050;13.678;2023-08-06T02:48:55;152612.34;;;15.61;100.00
49341;BME280;35209;51.050;13.678;2023-08-06T02:53:56;152617.56;;;15.63;100.00
49341;BME280;35209;51.050;13.678;2023-08-06T02:58:58;152613.63;;;15.62;100.00
49341;BME280;35209;51.050;13.678;2023-08-06T03:04:11;152613.63;;;15.62;100.00
49341;BME280;35209;51.050;13.678;2023-08-06T03:09:17;152629.28;;;15.68;100.00
49341;BME280;35209;51.050;13.678;2023-08-06T03:14:22;152624.06;;;15.66;100.00
49341;BME280;35209;51.050;13.678;2023-08-06T03:19:24;152604.59;;;15.58;100.00
49341;BME280;35209;51.050;13.678;2023-08-06T03:24:27;152601.97;;;15.57;100.00
49341;BME280;35209;51.050;13.678;2023-08-06T03:29:29;152608.47;;;15.60;100.00
49341;BME280;35209;51.050;13.678;2023-08-06T03:34:34;152681.09;;;15.88;100.00
49341;BME280;35209;51.050;13.678;2023-08-06T03:39:37;152635.72;;;15.71;100.00
49341;BME280;35209;51.050;13.678;2023-08-06T03:44:39;152620.19;;;15.64;100.00
49341;BME280;35209;51.050;13.678;2023-08-06T03:49:43;152590.31;;;15.53;100.00
49341;BME280;35209;51.050;13.678;2023-08-06T03:54:46;152599.41;;;15.56;100.00
49341;BME280;35209;51.050;13.678;2023-08-06T03:59:48;152604.59;;;15.58;100.00
49341;BME280;35209;51.050;13.678;2023-08-06T04:04:57;152605.91;;;15.59;100.00
49341;BME280;35209;51.050;13.678;2023-08-06T04:10:02;152613.63;;;15.62;100.00
49341;BME280;35209;51.050;13.678;2023-08-06T04:15:05;152621.47;;;15.65;100.00
49341;BME280;35209;51.050;13.678;2023-08-06T04:20:07;152618.91;;;15.64;100.00
49341;BME280;35209;51.050;13.678;2023-08-06T04:25:09;152626.69;;;15.67;100.00
49341;BME280;35209;51.050;13.678;2023-08-06T04:30:11;152638.34;;;15.72;100.00
49341;BME280;35209;51.050;13.678;2023-08-06T04:35:15;152621.47;;;15.65;100.00
49341;BME280;35209;51.050;13.678;2023-08-06T04:40:17;152643.50;;;15.74;100.00
49341;BME280;35209;51.050;13.678;2023-08-06T04:45:19;152639.66;;;15.72;100.00
49341;BME280;35209;51.050;13.678;2023-08-06T04:50:20;152638.34;;;15.72;100.00
49341;BME280;35209;51.050;13.678;2023-08-06T04:55:22;152655.19;;;15.78;100.00
49341;BME280;35209;51.050;13.678;2023-08-06T05:00:24;152653.88;;;15.78;100.00
49341;BME280;35209;51.050;13.678;2023-08-06T05:05:26;152700.53;;;15.96;100.00
49341;BME280;35209;51.050;13.678;2023-08-06T05:10:27;152713.50;;;16.01;100.00
49341;BME280;35209;51.050;13.678;2023-08-06T05:15:29;152647.38;;;15.75;100.00
49341;BME280;35209;51.050;13.678;2023-08-06T05:20:31;152648.69;;;15.76;100.00
49341;BME280;35209;51.050;13.678;2023-08-06T05:25:37;152703.13;;;15.97;100.00
49341;BME280;35209;51.050;13.678;2023-08-06T05:30:40;152640.94;;;15.73;100.00
49341;BME280;35209;51.050;13.678;2023-08-06T05:35:42;152644.81;;;15.74;100.00
49341;BME280;35209;51.050;13.678;2023-08-06T05:40:43;152665.53;;;15.82;100.00
49341;BME280;35209;51.050;13.678;2023-08-06T05:45:46;152656.47;;;15.79;100.00
49341;BME280;35209;51.050;13.678;2023-08-06T05:50:51;152687.59;;;15.91;100.00
49341;BME280;35209;51.050;13.678;2023-08-06T05:55:53;152670.72;;;15.84;100.00
49341;BME280;35209;51.050;13.678;2023-08-06T06:00:55;152691.47;;;15.93;100.00
49341;BME280;35209;51.050;13.678;2023-08-06T06:05:58;152704.41;;;15.98;100.00
49341;BME280;35209;51.050;13.678;2023-08-06T06:11:01;152716.06;;;16.02;100.00
49341;BME280;35209;51.050;13.678;2023-08-06T06:16:03;152691.47;;;15.93;100.00
49341;BME280;35209;51.050;13.678;2023-08-06T06:21:06;152707.03;;;15.99;100.00
49341;BME280;35209;51.050;13.678;2023-08-06T06:26:08;152723.88;;;16.05;100.00
49341;BME280;35209;51.050;13.678;2023-08-06T06:31:11;152758.88;;;16.19;100.00
49341;BME280;35209;51.050;13.678;2023-08-06T06:36:13;152747.19;;;16.14;100.00
49341;BME280;35209;51.050;13.678;2023-08-06T06:41:15;152793.88;;;16.33;100.00
49341;BME280;35209;51.050;13.678;2023-08-06T06:46:16;152783.50;;;16.29;100.00
49341;BME280;35209;51.050;13.678;2023-08-06T06:51:18;152801.66;;;16.36;100.00
49341;BME280;35209;51.050;13.678;2023-08-06T06:56:20;152857.44;;;16.58;100.00
49341;BME280;35209;51.050;13.678;2023-08-06T07:01:21;152880.75;;;16.67;100.00
49341;BME280;35209;51.050;13.678;2023-08-06T07:06:23;152906.75;;;16.77;100.00
49341;BME280;35209;51.050;13.678;2023-08-06T07:11:25;152915.81;;;16.81;100.00
49341;BME280;35209;51.050;13.678;2023-08-06T07:16:27;152906.75;;;16.77;100.00
49341;BME280;35209;51.050;13.678;2023-08-06T07:21:29;152937.88;;;16.89;100.00
49341;BME280;35209;51.050;13.678;2023-08-06T07:26:31;152899.00;;;16.74;100.00
49341;BME280;35209;51.050;13.678;2023-08-06T07:31:33;152889.84;;;16.71;100.00
49341;BME280;35209;51.050;13.678;2023-08-06T07:36:35;152923.63;;;16.84;100.00
49341;BME280;35209;51.050;13.678;2023-08-06T07:41:36;152919.75;;;16.82;100.00
49341;BME280;35209;51.050;13.678;2023-08-06T07:46:38;152931.44;;;16.87;100.00
49341;BME280;35209;51.050;13.678;2023-08-06T07:51:41;152943.09;;;16.92;100.00
49341;BME280;35209;51.050;13.678;2023-08-06T07:56:50;152893.78;;;16.72;100.00
49341;BME280;35209;51.050;13.678;2023-08-06T08:01:52;152848.34;;;16.54;100.00
49341;BME280;35209;51.050;13.678;2023-08-06T08:06:54;152892.44;;;16.72;100.00
49341;BME280;35209;51.050;13.678;2023-08-06T08:11:56;152847.03;;;16.54;100.00
49341;BME280;35209;51.050;13.678;2023-08-06T08:17:05;152834.09;;;16.49;100.00
49341;BME280;35209;51.050;13.678;2023-08-06T08:22:10;152830.22;;;16.47;100.00
49341;BME280;35209;51.050;13.678;2023-08-06T08:27:11;152818.53;;;16.43;100.00
49341;BME280;35209;51.050;13.678;2023-08-06T08:32:13;152745.91;;;16.14;100.00
49341;BME280;35209;51.050;13.678;2023-08-06T08:37:15;152721.28;;;16.04;100.00
49341;BME280;35209;51.050;13.678;2023-08-06T08:42:17;152774.47;;;16.25;100.00
49341;BME280;35209;51.050;13.678;2023-08-06T08:47:19;152793.88;;;16.33;100.00
49341;BME280;35209;51.050;13.678;2023-08-06T08:52:21;152904.16;;;16.76;100.00
49341;BME280;35209;51.050;13.678;2023-08-06T08:57:24;152950.84;;;16.95;100.00
49341;BME280;35209;51.050;13.678;2023-08-06T09:02:28;152967.72;;;17.01;100.00
49341;BME280;35209;51.050;13.678;2023-08-06T09:07:35;152897.69;;;16.74;100.00
49341;BME280;35209;51.050;13.678;2023-08-06T09:12:41;152845.75;;;16.53;100.00
49341;BME280;35209;51.050;13.678;2023-08-06T09:17:43;152841.88;;;16.52;100.00
49341;BME280;35209;51.050;13.678;2023-08-06T09:22:45;152892.44;;;16.72;100.00
49341;BME280;35209;51.050;13.678;2023-08-06T09:27:47;152906.75;;;16.77;100.00
49341;BME280;35209;51.050;13.678;2023-08-06T09:32:49;152902.88;;;16.76;100.00
49341;BME280;35209;51.050;13.678;2023-08-06T09:37:54;152976.81;;;17.05;100.00
49341;BME280;35209;51.050;13.678;2023-08-06T09:42:57;152954.75;;;16.96;100.00
49341;BME280;35209;51.050;13.678;2023-08-06T09:48:02;153006.63;;;17.17;100.00
49341;BME280;35209;51.050;13.678;2023-08-06T09:53:06;153079.31;;;17.45;100.00
49341;BME280;35209;51.050;13.678;2023-08-06T09:58:08;153029.97;;;17.26;100.00
49341;BME280;35209;51.050;13.678;2023-08-06T10:03:10;153084.47;;;17.47;100.00
49341;BME280;35209;51.050;13.678;2023-08-06T10:08:15;153046.88;;;17.32;100.00
49341;BME280;35209;51.050;13.678;2023-08-06T10:13:19;153098.75;;;17.53;100.00
49341;BME280;35209;51.050;13.678;2023-08-06T10:18:24;153045.56;;;17.32;100.00
49341;BME280;35209;51.050;13.678;2023-08-06T10:23:33;153127.31;;;17.64;100.00
49341;BME280;35209;51.050;13.678;2023-08-06T10:28:38;153139.00;;;17.69;100.00
49341;BME280;35209;51.050;13.678;2023-08-06T10:33:47;153206.53;;;17.95;100.00
49341;BME280;35209;51.050;13.678;2023-08-06T10:38:50;153253.25;;;18.13;99.57
49341;BME280;35209;51.050;13.678;2023-08-06T10:43:52;153259.78;;;18.16;96.86
49341;BME280;35209;51.050;13.678;2023-08-06T10:48:54;153240.28;;;18.08;100.00
49341;BME280;35209;51.050;13.678;2023-08-06T10:53:56;153294.81;;;18.30;96.06
49341;BME280;35209;51.050;13.678;2023-08-06T10:58:59;153300.00;;;18.32;96.62
49341;BME280;35209;51.050;13.678;2023-08-06T11:04:02;153280.56;;;18.24;99.88
49341;BME280;35209;51.050;13.678;2023-08-06T11:09:04;153305.22;;;18.34;96.08
49341;BME280;35209;51.050;13.678;2023-08-06T11:14:06;153368.81;;;18.59;90.12
49341;BME280;35209;51.050;13.678;2023-08-06T11:19:08;153351.94;;;18.52;92.50
49341;BME280;35209;51.050;13.678;2023-08-06T11:24:10;153397.44;;;18.70;94.21
49341;BME280;35209;51.050;13.678;2023-08-06T11:29:15;153419.53;;;18.79;92.24
49341;BME280;35209;51.050;13.678;2023-08-06T11:34:17;153436.38;;;18.85;85.96
49341;BME280;35209;51.050;13.678;2023-08-06T11:39:19;153385.72;;;18.65;88.92
49341;BME280;35209;51.050;13.678;2023-08-06T11:44:21;153398.75;;;18.71;86.46
49341;BME280;35209;51.050;13.678;2023-08-06T11:49:47;153384.41;;;18.65;89.65
49341;BME280;35209;51.050;13.678;2023-08-06T11:55:04;153326.00;;;18.42;92.48
49341;BME280;35209;51.050;13.678;2023-08-06T12:00:11;153329.88;;;18.44;89.62
49341;BME280;35209;51.050;13.678;2023-08-06T12:05:18;153300.00;;;18.32;92.57
49341;BME280;35209;51.050;13.678;2023-08-06T12:10:24;153327.28;;;18.43;93.63
49341;BME280;35209;51.050;13.678;2023-08-06T12:15:26;153307.78;;;18.35;94.74
49341;BME280;35209;51.050;13.678;2023-08-06T12:20:28;153333.75;;;18.45;94.29
49341;BME280;35209;51.050;13.678;2023-08-06T12:25:30;153371.44;;;18.60;94.19
49341;BME280;35209;51.050;13.678;2023-08-06T12:30:31;153431.22;;;18.83;87.88
49341;BME280;35209;51.050;13.678;2023-08-06T12:35:33;153452.00;;;18.92;87.89
49341;BME280;35209;51.050;13.678;2023-08-06T12:40:35;153416.94;;;18.78;91.02
49341;BME280;35209;51.050;13.678;2023-08-06T12:45:42;153463.69;;;18.96;88.20
49341;BME280;35209;51.050;13.678;2023-08-06T12:50:44;153471.50;;;18.99;90.34
49341;BME280;35209;51.050;13.678;2023-08-06T12:55:46;153505.28;;;19.12;87.86
49341;BME280;35209;51.050;13.678;2023-08-06T13:00:49;153465.00;;;18.97;87.79
49341;BME280;35209;51.050;13.678;2023-08-06T13:05:51;153455.88;;;18.93;82.31
49341;BME280;35209;51.050;13.678;2023-08-06T13:10:53;153493.53;;;19.08;84.12
49341;BME280;35209;51.050;13.678;2023-08-06T13:15:54;153474.09;;;19.00;83.12
49341;BME280;35209;51.050;13.678;2023-08-06T13:20:56;153520.84;;;19.19;82.87
49341;BME280;35209;51.050;13.678;2023-08-06T13:25:58;153680.72;;;19.81;77.83
49341;BME280;35209;51.050;13.678;2023-08-06T13:31:01;153710.63;;;19.93;74.95
49341;BME280;35209;51.050;13.678;2023-08-06T13:36:03;153684.59;;;19.83;78.23
49341;BME280;35209;51.050;13.678;2023-08-06T13:41:04;153676.84;;;19.80;73.20
49341;BME280;35209;51.050;13.678;2023-08-06T13:46:07;153645.63;;;19.68;74.86
49341;BME280;35209;51.050;13.678;2023-08-06T13:51:10;153662.50;;;19.74;73.66
49341;BME280;35209;51.050;13.678;2023-08-06T13:56:12;153717.09;;;19.96;73.35
49341;BME280;35209;51.050;13.678;2023-08-06T14:01:17;153735.31;;;20.03;72.75
49341;BME280;35209;51.050;13.678;2023-08-06T14:06:20;153780.81;;;20.21;73.34
49341;BME280;35209;51.050;13.678;2023-08-06T14:11:22;153719.72;;;19.97;73.47
49341;BME280;35209;51.050;13.678;2023-08-06T14:16:24;153698.94;;;19.88;74.16
49341;BME280;35209;51.050;13.678;2023-08-06T14:21:29;153782.09;;;20.21;73.86
49341;BME280;35209;51.050;13.678;2023-08-06T14:26:31;153771.69;;;20.17;74.79
49341;BME280;35209;51.050;13.678;2023-08-06T14:31:32;153749.59;;;20.08;71.95
49341;BME280;35209;51.050;13.678;2023-08-06T14:36:34;153754.81;;;20.10;74.28
49341;BME280;35209;51.050;13.678;2023-08-06T14:41:36;153696.28;;;19.87;73.81
49341;BME280;35209;51.050;13.678;2023-08-06T14:46:38;153697.63;;;19.88;74.11
49341;BME280;35209;51.050;13.678;2023-08-06T14:51:40;153659.91;;;19.73;73.61
49341;BME280;35209;51.050;13.678;2023-08-06T14:56:42;153659.91;;;19.73;78.63
49341;BME280;35209;51.050;13.678;2023-08-06T15:01:44;153676.84;;;19.80;74.65
49341;BME280;35209;51.050;13.678;2023-08-06T15:06:46;153844.53;;;20.46;73.14
49341;BME280;35209;51.050;13.678;2023-08-06T15:11:49;153793.81;;;20.26;72.59
49341;BME280;35209;51.050;13.678;2023-08-06T15:16:51;153760.00;;;20.12;73.31
49341;BME280;35209;51.050;13.678;2023-08-06T15:21:54;153734.03;;;20.02;72.99
49341;BME280;35209;51.050;13.678;2023-08-06T15:26:56;153713.22;;;19.94;75.67
49341;BME280;35209;51.050;13.678;2023-08-06T15:31:58;153678.13;;;19.80;76.69
49341;BME280;35209;51.050;13.678;2023-08-06T15:37:00;153658.63;;;19.73;77.21
49341;BME280;35209;51.050;13.678;2023-08-06T15:42:03;153559.81;;;19.34;87.13
49341;BME280;35209;51.050;13.678;2023-08-06T15:47:05;153392.19;;;18.68;97.37
49341;BME280;35209;51.050;13.678;2023-08-06T15:52:07;153275.34;;;18.22;100.00
49341;BME280;35209;51.050;13.678;2023-08-06T15:57:09;153168.91;;;17.80;100.00
49341;BME280;35209;51.050;13.678;2023-08-06T16:02:11;153185.75;;;17.87;100.00
49341;BME280;35209;51.050;13.678;2023-08-06T16:07:14;153141.56;;;17.70;100.00
49341;BME280;35209;51.050;13.678;2023-08-06T16:12:17;153139.00;;;17.69;100.00
49341;BME280;35209;51.050;13.678;2023-08-06T16:17:20;153106.53;;;17.56;100.00
49341;BME280;35209;51.050;13.678;2023-08-06T16:22:25;153098.75;;;17.53;100.00
49341;BME280;35209;51.050;13.678;2023-08-06T16:27:27;153133.81;;;17.67;100.00
49341;BME280;35209;51.050;13.678;2023-08-06T16:32:29;153098.75;;;17.53;100.00
49341;BME280;35209;51.050;13.678;2023-08-06T16:37:31;153131.19;;;17.65;100.00
49341;BME280;35209;51.050;13.678;2023-08-06T16:42:33;153190.97;;;17.89;100.00
49341;BME280;35209;51.050;13.678;2023-08-06T16:47:35;153176.66;;;17.83;100.00
49341;BME280;35209;51.050;13.678;2023-08-06T16:52:37;153116.94;;;17.60;100.00
49341;BME280;35209;51.050;13.678;2023-08-06T16:57:39;153097.44;;;17.52;100.00
49341;BME280;35209;51.050;13.678;2023-08-06T17:02:41;153085.78;;;17.48;100.00
49341;BME280;35209;51.050;13.678;2023-08-06T17:07:44;153127.31;;;17.64;100.00
49341;BME280;35209;51.050;13.678;2023-08-06T17:12:50;153044.28;;;17.31;100.00
49341;BME280;35209;51.050;13.678;2023-08-06T17:18:00;153055.97;;;17.36;100.00
49341;BME280;35209;51.050;13.678;2023-08-06T17:23:02;153018.31;;;17.21;100.00
49341;BME280;35209;51.050;13.678;2023-08-06T17:28:06;153020.94;;;17.22;100.00
49341;BME280;35209;51.050;13.678;2023-08-06T17:33:08;153017.00;;;17.21;100.00
49341;BME280;35209;51.050;13.678;2023-08-06T17:38:11;153019.59;;;17.22;100.00
49341;BME280;35209;51.050;13.678;2023-08-06T17:43:13;153014.44;;;17.20;100.00
49341;BME280;35209;51.050;13.678;2023-08-06T17:48:15;152966.44;;;17.01;100.00
49341;BME280;35209;51.050;13.678;2023-08-06T17:53:18;152945.69;;;16.93;100.00
49341;BME280;35209;51.050;13.678;2023-08-06T17:58:20;152944.38;;;16.92;100.00
49341;BME280;35209;51.050;13.678;2023-08-06T18:03:22;152974.19;;;17.04;100.00
49341;BME280;35209;51.050;13.678;2023-08-06T18:08:26;153083.19;;;17.47;100.00
49341;BME280;35209;51.050;13.678;2023-08-06T18:13:28;153004.03;;;17.15;100.00
49341;BME280;35209;51.050;13.678;2023-08-06T18:18:30;152944.38;;;16.92;100.00
49341;BME280;35209;51.050;13.678;2023-08-06T18:23:32;152891.16;;;16.71;100.00
49341;BME280;35209;51.050;13.678;2023-08-06T18:28:34;152821.13;;;16.44;100.00
49341;BME280;35209;51.050;13.678;2023-08-06T18:33:37;152747.19;;;16.14;100.00
49341;BME280;35209;51.050;13.678;2023-08-06T18:38:41;152581.25;;;15.49;100.00
49341;BME280;35209;51.050;13.678;2023-08-06T18:43:44;152529.44;;;15.29;100.00
49341;BME280;35209;51.050;13.678;2023-08-06T18:48:46;152478.88;;;15.09;100.00
49341;BME280;35209;51.050;13.678;2023-08-06T18:53:49;152520.34;;;15.25;100.00
49341;BME280;35209;51.050;13.678;2023-08-06T18:58:52;152548.88;;;15.36;100.00
49341;BME280;35209;51.050;13.678;2023-08-06T19:03:54;152522.94;;;15.26;100.00
49341;BME280;35209;51.050;13.678;2023-08-06T19:08:56;152454.28;;;14.99;100.00
49341;BME280;35209;51.050;13.678;2023-08-06T19:13:58;152425.81;;;14.88;100.00
49341;BME280;35209;51.050;13.678;2023-08-06T19:19:00;152464.66;;;15.03;100.00
49341;BME280;35209;51.050;13.678;2023-08-06T19:24:02;152446.50;;;14.96;100.00
49341;BME280;35209;51.050;13.678;2023-08-06T19:29:04;152446.50;;;14.96;100.00
49341;BME280;35209;51.050;13.678;2023-08-06T19:34:07;152433.56;;;14.91;100.00
49341;BME280;35209;51.050;13.678;2023-08-06T19:39:09;152384.34;;;14.72;100.00
49341;BME280;35209;51.050;13.678;2023-08-06T19:44:11;152414.16;;;14.83;100.00
49341;BME280;35209;51.050;13.678;2023-08-06T19:49:14;152430.97;;;14.90;100.00
49341;BME280;35209;51.050;13.678;2023-08-06T19:54:17;152440.03;;;14.94;100.00
49341;BME280;35209;51.050;13.678;2023-08-06T19:59:20;152432.25;;;14.91;100.00
49341;BME280;35209;51.050;13.678;2023-08-06T20:04:22;152449.13;;;14.97;100.00
49341;BME280;35209;51.050;13.678;2023-08-06T20:09:25;152429.69;;;14.89;100.00
49341;BME280;35209;51.050;13.678;2023-08-06T20:14:27;152456.88;;;15.00;100.00
49341;BME280;35209;51.050;13.678;2023-08-06T20:19:29;152406.38;;;14.80;100.00
49341;BME280;35209;51.050;13.678;2023-08-06T20:24:31;152345.47;;;14.56;100.00
49341;BME280;35209;51.050;13.678;2023-08-06T20:29:34;152355.84;;;14.60;100.00
49341;BME280;35209;51.050;13.678;2023-08-06T20:34:37;152337.72;;;14.53;100.00
49341;BME280;35209;51.050;13.678;2023-08-06T20:39:38;152337.72;;;14.53;100.00
49341;BME280;35209;51.050;13.678;2023-08-06T20:44:41;152363.63;;;14.63;100.00
49341;BME280;35209;51.050;13.678;2023-08-06T20:49:43;152396.00;;;14.76;100.00
49341;BME280;35209;51.050;13.678;2023-08-06T20:54:45;152463.34;;;15.03;100.00
49341;BME280;35209;51.050;13.678;2023-08-06T20:59:47;152480.19;;;15.09;100.00
49341;BME280;35209;51.050;13.678;2023-08-06T21:04:49;152468.53;;;15.05;100.00
49341;BME280;35209;51.050;13.678;2023-08-06T21:09:51;152468.53;;;15.05;100.00
49341;BME280;35209;51.050;13.678;2023-08-06T21:14:54;152453.00;;;14.99;100.00
49341;BME280;35209;51.050;13.678;2023-08-06T21:19:56;152460.78;;;15.02;100.00
49341;BME280;35209;51.050;13.678;2023-08-06T21:24:58;152472.44;;;15.06;100.00
49341;BME280;35209;51.050;13.678;2023-08-06T21:30:00;152449.13;;;14.97;100.00
49341;BME280;35209;51.050;13.678;2023-08-06T21:35:02;152476.31;;;15.08;100.00
49341;BME280;35209;51.050;13.678;2023-08-06T21:40:07;152478.88;;;15.09;100.00
49341;BME280;35209;51.050;13.678;2023-08-06T21:45:09;152471.16;;;15.06;100.00
49341;BME280;35209;51.050;13.678;2023-08-06T21:50:12;152469.84;;;15.05;100.00
49341;BME280;35209;51.050;13.678;2023-08-06T21:55:14;152472.44;;;15.06;100.00
49341;BME280;35209;51.050;13.678;2023-08-06T22:00:15;152443.91;;;14.95;100.00
49341;BME280;35209;51.050;13.678;2023-08-06T22:05:17;152450.41;;;14.98;100.00
49341;BME280;35209;51.050;13.678;2023-08-06T22:10:19;152424.53;;;14.87;100.00
49341;BME280;35209;51.050;13.678;2023-08-06T22:15:21;152441.34;;;14.94;100.00
49341;BME280;35209;51.050;13.678;2023-08-06T22:20:23;152471.16;;;15.06;100.00
49341;BME280;35209;51.050;13.678;2023-08-06T22:25:30;152463.34;;;15.03;100.00
49341;BME280;35209;51.050;13.678;2023-08-06T22:30:32;152462.06;;;15.02;100.00
49341;BME280;35209;51.050;13.678;2023-08-06T22:35:33;152460.78;;;15.02;100.00
49341;BME280;35209;51.050;13.678;2023-08-06T22:40:35;152467.22;;;15.04;100.00
49341;BME280;35209;51.050;13.678;2023-08-06T22:45:37;152458.19;;;15.01;100.00
49341;BME280;35209;51.050;13.678;2023-08-06T22:50:39;152419.31;;;14.85;100.00
49341;BME280;35209;51.050;13.678;2023-08-06T22:55:41;152424.53;;;14.87;100.00
49341;BME280;35209;51.050;13.678;2023-08-06T23:01:03;152425.81;;;14.88;100.00
49341;BME280;35209;51.050;13.678;2023-08-06T23:06:05;152412.81;;;14.83;100.00
49341;BME280;35209;51.050;13.678;2023-08-06T23:11:06;152403.78;;;14.79;100.00
49341;BME280;35209;51.050;13.678;2023-08-06T23:16:09;152396.00;;;14.76;100.00
49341;BME280;35209;51.050;13.678;2023-08-06T23:21:12;152381.78;;;14.71;100.00
49341;BME280;35209;51.050;13.678;2023-08-06T23:26:14;152380.47;;;14.70;100.00
49341;BME280;35209;51.050;13.678;2023-08-06T23:31:16;152390.84;;;14.74;100.00
49341;BME280;35209;51.050;13.678;2023-08-06T23:36:18;152379.16;;;14.70;100.00
49341;BME280;35209;51.050;13.678;2023-08-06T23:41:20;152379.16;;;14.70;100.00
49341;BME280;35209;51.050;13.678;2023-08-06T23:46:22;152394.72;;;14.76;100.00
49341;BME280;35209;51.050;13.678;2023-08-06T23:51:24;152388.22;;;14.73;100.00
49341;BME280;35209;51.050;13.678;2023-08-06T23:56:26;152377.84;;;14.69;100.00
